sensor_id;sensor_type;location;lat;lon;timestamp;P1;durP1;ratioP1;P2;durP2;ratioP2
64110;SDS011;50401;48.188;11.566;2023-07-29T00:00:40;17.50;;;7.35;;
64110;SDS011;50401;48.188;11.566;2023-07-29T00:03:05;14.88;;;7.50;;
64110;SDS011;50401;48.188;11.566;2023-07-29T00:05:31;16.13;;;7.68;;
64110;SDS011;50401;48.188;11.566;2023-07-29T00:07:56;13.07;;;7.50;;
64110;SDS011;50401;48.188;11.566;2023-07-29T00:10:21;16.00;;;7.40;;
64110;SDS011;50401;48.188;11.566;2023-07-29T00:12:47;14.35;;;7.30;;
64110;SDS011;50401;48.188;11.566;2023-07-29T00:15:12;16.00;;;7.22;;
64110;SDS011;50401;48.188;11.566;2023-07-29T00:17:38;15.65;;;7.95;;
64110;SDS011;50401;48.188;11.566;2023-07-29T00:20:03;16.35;;;7.63;;
64110;SDS011;50401;48.188;11.566;2023-07-29T00:22:30;11.57;;;6.93;;
64110;SDS011;50401;48.188;11.566;2023-07-29T00:24:55;14.45;;;7.32;;
64110;SDS011;50401;48.188;11.566;2023-07-29T00:27:22;15.27;;;7.25;;
64110;SDS011;50401;48.188;11.566;2023-07-29T00:29:47;11.43;;;6.35;;
64110;SDS011;50401;48.188;11.566;2023-07-29T00:32:12;12.98;;;6.28;;
64110;SDS011;50401;48.188;11.566;2023-07-29T00:34:38;9.25;;;5.97;;
64110;SDS011;50401;48.188;11.566;2023-07-29T00:37:03;12.65;;;6.50;;
64110;SDS011;50401;48.188;11.566;2023-07-29T00:39:30;9.85;;;5.43;;
64110;SDS011;50401;48.188;11.566;2023-07-29T00:41:56;10.60;;;5.57;;
64110;SDS011;50401;48.188;11.566;2023-07-29T00:44:21;14.00;;;6.53;;
64110;SDS011;50401;48.188;11.566;2023-07-29T00:46:46;12.85;;;6.00;;
64110;SDS011;50401;48.188;11.566;2023-07-29T00:49:14;8.25;;;5.15;;
64110;SDS011;50401;48.188;11.566;2023-07-29T00:51:40;10.18;;;4.90;;
64110;SDS011;50401;48.188;11.566;2023-07-29T00:54:05;9.90;;;5.53;;
64110;SDS011;50401;48.188;11.566;2023-07-29T00:56:30;15.65;;;5.65;;
64110;SDS011;50401;48.188;11.566;2023-07-29T00:58:56;11.02;;;6.15;;
64110;SDS011;50401;48.188;11.566;2023-07-29T01:01:25;14.38;;;6.55;;
64110;SDS011;50401;48.188;11.566;2023-07-29T01:03:50;14.82;;;7.25;;
64110;SDS011;50401;48.188;11.566;2023-07-29T01:06:18;17.95;;;7.35;;
64110;SDS011;50401;48.188;11.566;2023-07-29T01:09:06;17.48;;;6.40;;
64110;SDS011;50401;48.188;11.566;2023-07-29T01:11:56;11.98;;;6.45;;
64110;SDS011;50401;48.188;11.566;2023-07-29T01:19:42;11.02;;;5.70;;
64110;SDS011;50401;48.188;11.566;2023-07-29T01:22:25;10.80;;;5.78;;
64110;SDS011;50401;48.188;11.566;2023-07-29T01:24:52;12.07;;;5.80;;
64110;SDS011;50401;48.188;11.566;2023-07-29T01:27:18;13.13;;;6.53;;
64110;SDS011;50401;48.188;11.566;2023-07-29T01:29:43;11.75;;;5.07;;
64110;SDS011;50401;48.188;11.566;2023-07-29T01:32:14;8.25;;;4.57;;
64110;SDS011;50401;48.188;11.566;2023-07-29T01:37:39;7.80;;;4.28;;
64110;SDS011;50401;48.188;11.566;2023-07-29T01:40:06;10.73;;;5.40;;
64110;SDS011;50401;48.188;11.566;2023-07-29T01:42:33;12.27;;;5.00;;
64110;SDS011;50401;48.188;11.566;2023-07-29T01:44:59;9.40;;;4.82;;
64110;SDS011;50401;48.188;11.566;2023-07-29T01:47:25;11.98;;;4.82;;
64110;SDS011;50401;48.188;11.566;2023-07-29T01:49:50;9.43;;;4.93;;
64110;SDS011;50401;48.188;11.566;2023-07-29T01:52:16;13.63;;;4.80;;
64110;SDS011;50401;48.188;11.566;2023-07-29T01:54:41;9.90;;;5.70;;
64110;SDS011;50401;48.188;11.566;2023-07-29T01:57:07;10.32;;;5.50;;
64110;SDS011;50401;48.188;11.566;2023-07-29T01:59:32;14.05;;;6.57;;
64110;SDS011;50401;48.188;11.566;2023-07-29T02:01:57;16.27;;;6.90;;
64110;SDS011;50401;48.188;11.566;2023-07-29T02:04:23;14.77;;;8.10;;
64110;SDS011;50401;48.188;11.566;2023-07-29T02:06:48;18.45;;;7.88;;
64110;SDS011;50401;48.188;11.566;2023-07-29T02:09:14;12.27;;;6.22;;
64110;SDS011;50401;48.188;11.566;2023-07-29T02:11:39;17.40;;;6.22;;
64110;SDS011;50401;48.188;11.566;2023-07-29T02:14:04;10.65;;;6.03;;
64110;SDS011;50401;48.188;11.566;2023-07-29T02:16:30;9.10;;;5.03;;
64110;SDS011;50401;48.188;11.566;2023-07-29T02:18:55;10.20;;;4.35;;
64110;SDS011;50401;48.188;11.566;2023-07-29T02:21:20;9.77;;;4.30;;
64110;SDS011;50401;48.188;11.566;2023-07-29T02:23:46;7.65;;;4.05;;
64110;SDS011;50401;48.188;11.566;2023-07-29T02:26:11;9.98;;;4.20;;
64110;SDS011;50401;48.188;11.566;2023-07-29T02:28:36;9.40;;;4.22;;
64110;SDS011;50401;48.188;11.566;2023-07-29T02:31:08;5.63;;;4.05;;
64110;SDS011;50401;48.188;11.566;2023-07-29T02:33:34;6.80;;;4.57;;
64110;SDS011;50401;48.188;11.566;2023-07-29T02:35:59;10.50;;;4.75;;
64110;SDS011;50401;48.188;11.566;2023-07-29T02:38:25;9.25;;;4.20;;
64110;SDS011;50401;48.188;11.566;2023-07-29T02:40:50;11.32;;;4.22;;
64110;SDS011;50401;48.188;11.566;2023-07-29T02:43:15;12.25;;;4.95;;
64110;SDS011;50401;48.188;11.566;2023-07-29T02:45:41;8.40;;;4.30;;
64110;SDS011;50401;48.188;11.566;2023-07-29T02:48:06;15.93;;;5.03;;
64110;SDS011;50401;48.188;11.566;2023-07-29T02:50:32;9.90;;;4.93;;
64110;SDS011;50401;48.188;11.566;2023-07-29T02:52:59;11.15;;;4.68;;
64110;SDS011;50401;48.188;11.566;2023-07-29T02:55:26;14.63;;;5.43;;
64110;SDS011;50401;48.188;11.566;2023-07-29T02:57:51;12.52;;;5.93;;
64110;SDS011;50401;48.188;11.566;2023-07-29T03:00:16;10.73;;;5.72;;
64110;SDS011;50401;48.188;11.566;2023-07-29T03:02:42;11.07;;;5.47;;
64110;SDS011;50401;48.188;11.566;2023-07-29T03:05:07;11.75;;;5.32;;
64110;SDS011;50401;48.188;11.566;2023-07-29T03:07:33;11.07;;;4.60;;
64110;SDS011;50401;48.188;11.566;2023-07-29T03:09:58;8.55;;;4.97;;
64110;SDS011;50401;48.188;11.566;2023-07-29T03:12:24;9.65;;;5.05;;
64110;SDS011;50401;48.188;11.566;2023-07-29T03:14:49;8.55;;;3.90;;
64110;SDS011;50401;48.188;11.566;2023-07-29T03:17:14;6.88;;;3.80;;
64110;SDS011;50401;48.188;11.566;2023-07-29T03:19:40;6.22;;;3.90;;
64110;SDS011;50401;48.188;11.566;2023-07-29T03:22:05;8.52;;;4.53;;
64110;SDS011;50401;48.188;11.566;2023-07-29T03:24:30;9.73;;;3.75;;
64110;SDS011;50401;48.188;11.566;2023-07-29T03:26:56;6.63;;;4.32;;
64110;SDS011;50401;48.188;11.566;2023-07-29T03:29:21;10.40;;;4.63;;
64110;SDS011;50401;48.188;11.566;2023-07-29T03:31:46;6.38;;;3.92;;
64110;SDS011;50401;48.188;11.566;2023-07-29T03:34:12;7.80;;;4.00;;
64110;SDS011;50401;48.188;11.566;2023-07-29T03:36:37;10.82;;;4.57;;
64110;SDS011;50401;48.188;11.566;2023-07-29T03:39:02;10.73;;;4.13;;
64110;SDS011;50401;48.188;11.566;2023-07-29T03:41:28;7.25;;;4.10;;
64110;SDS011;50401;48.188;11.566;2023-07-29T03:43:54;12.65;;;4.13;;
64110;SDS011;50401;48.188;11.566;2023-07-29T03:46:19;6.65;;;3.80;;
64110;SDS011;50401;48.188;11.566;2023-07-29T03:48:46;7.80;;;4.32;;
64110;SDS011;50401;48.188;11.566;2023-07-29T03:51:12;9.35;;;3.83;;
64110;SDS011;50401;48.188;11.566;2023-07-29T03:53:37;6.45;;;3.67;;
64110;SDS011;50401;48.188;11.566;2023-07-29T03:56:02;6.07;;;3.50;;
64110;SDS011;50401;48.188;11.566;2023-07-29T03:58:28;8.23;;;3.63;;
64110;SDS011;50401;48.188;11.566;2023-07-29T04:00:53;11.00;;;3.60;;
64110;SDS011;50401;48.188;11.566;2023-07-29T04:03:19;9.48;;;3.85;;
64110;SDS011;50401;48.188;11.566;2023-07-29T04:05:44;6.78;;;3.72;;
64110;SDS011;50401;48.188;11.566;2023-07-29T04:08:09;5.63;;;3.35;;
64110;SDS011;50401;48.188;11.566;2023-07-29T04:10:35;6.18;;;3.47;;
64110;SDS011;50401;48.188;11.566;2023-07-29T04:13:00;8.10;;;4.07;;
64110;SDS011;50401;48.188;11.566;2023-07-29T04:15:26;7.90;;;3.67;;
64110;SDS011;50401;48.188;11.566;2023-07-29T04:17:51;6.75;;;3.47;;
64110;SDS011;50401;48.188;11.566;2023-07-29T04:20:16;6.90;;;3.38;;
64110;SDS011;50401;48.188;11.566;2023-07-29T04:22:42;10.32;;;3.38;;
64110;SDS011;50401;48.188;11.566;2023-07-29T04:25:07;6.55;;;3.47;;
64110;SDS011;50401;48.188;11.566;2023-07-29T04:27:33;5.32;;;3.53;;
64110;SDS011;50401;48.188;11.566;2023-07-29T04:29:58;8.68;;;3.58;;
64110;SDS011;50401;48.188;11.566;2023-07-29T04:32:23;6.45;;;3.55;;
64110;SDS011;50401;48.188;11.566;2023-07-29T04:34:49;8.10;;;4.28;;
64110;SDS011;50401;48.188;11.566;2023-07-29T04:37:14;7.35;;;3.63;;
64110;SDS011;50401;48.188;11.566;2023-07-29T04:39:39;10.07;;;3.47;;
64110;SDS011;50401;48.188;11.566;2023-07-29T04:42:05;6.30;;;3.75;;
64110;SDS011;50401;48.188;11.566;2023-07-29T04:44:30;5.55;;;3.13;;
64110;SDS011;50401;48.188;11.566;2023-07-29T04:46:55;8.32;;;3.63;;
64110;SDS011;50401;48.188;11.566;2023-07-29T04:49:21;5.03;;;2.80;;
64110;SDS011;50401;48.188;11.566;2023-07-29T04:51:46;7.03;;;3.30;;
64110;SDS011;50401;48.188;11.566;2023-07-29T04:54:11;7.38;;;3.47;;
64110;SDS011;50401;48.188;11.566;2023-07-29T04:56:37;12.50;;;3.35;;
64110;SDS011;50401;48.188;11.566;2023-07-29T04:59:02;7.60;;;4.05;;
64110;SDS011;50401;48.188;11.566;2023-07-29T05:01:27;9.00;;;3.45;;
64110;SDS011;50401;48.188;11.566;2023-07-29T05:03:53;4.43;;;2.95;;
64110;SDS011;50401;48.188;11.566;2023-07-29T05:06:18;7.72;;;3.28;;
64110;SDS011;50401;48.188;11.566;2023-07-29T05:08:43;7.80;;;3.65;;
64110;SDS011;50401;48.188;11.566;2023-07-29T05:11:09;9.70;;;4.25;;
64110;SDS011;50401;48.188;11.566;2023-07-29T05:13:35;6.25;;;3.10;;
64110;SDS011;50401;48.188;11.566;2023-07-29T05:16:00;4.88;;;3.13;;
64110;SDS011;50401;48.188;11.566;2023-07-29T05:18:25;8.98;;;3.03;;
64110;SDS011;50401;48.188;11.566;2023-07-29T05:20:50;4.82;;;2.67;;
64110;SDS011;50401;48.188;11.566;2023-07-29T05:23:16;4.28;;;2.67;;
64110;SDS011;50401;48.188;11.566;2023-07-29T05:25:41;9.38;;;2.65;;
64110;SDS011;50401;48.188;11.566;2023-07-29T05:28:06;6.72;;;2.65;;
64110;SDS011;50401;48.188;11.566;2023-07-29T05:30:32;6.68;;;2.97;;
64110;SDS011;50401;48.188;11.566;2023-07-29T05:32:58;7.35;;;2.78;;
64110;SDS011;50401;48.188;11.566;2023-07-29T05:35:24;4.70;;;3.08;;
64110;SDS011;50401;48.188;11.566;2023-07-29T05:37:50;4.45;;;2.90;;
64110;SDS011;50401;48.188;11.566;2023-07-29T05:40:15;5.97;;;3.22;;
64110;SDS011;50401;48.188;11.566;2023-07-29T05:42:41;6.45;;;2.90;;
64110;SDS011;50401;48.188;11.566;2023-07-29T05:45:06;8.35;;;3.45;;
64110;SDS011;50401;48.188;11.566;2023-07-29T05:47:33;13.00;;;4.05;;
64110;SDS011;50401;48.188;11.566;2023-07-29T05:49:58;10.75;;;4.57;;
64110;SDS011;50401;48.188;11.566;2023-07-29T05:52:25;10.10;;;3.92;;
64110;SDS011;50401;48.188;11.566;2023-07-29T05:54:50;10.65;;;4.85;;
64110;SDS011;50401;48.188;11.566;2023-07-29T05:57:15;12.95;;;4.60;;
64110;SDS011;50401;48.188;11.566;2023-07-29T05:59:40;10.02;;;4.10;;
64110;SDS011;50401;48.188;11.566;2023-07-29T06:02:06;7.95;;;3.35;;
64110;SDS011;50401;48.188;11.566;2023-07-29T06:04:31;6.03;;;3.38;;
64110;SDS011;50401;48.188;11.566;2023-07-29T06:06:57;15.15;;;4.60;;
64110;SDS011;50401;48.188;11.566;2023-07-29T06:09:22;6.95;;;3.28;;
64110;SDS011;50401;48.188;11.566;2023-07-29T06:11:48;8.27;;;3.40;;
64110;SDS011;50401;48.188;11.566;2023-07-29T06:14:13;5.38;;;2.88;;
64110;SDS011;50401;48.188;11.566;2023-07-29T06:16:38;8.02;;;3.65;;
64110;SDS011;50401;48.188;11.566;2023-07-29T06:19:04;12.73;;;2.90;;
64110;SDS011;50401;48.188;11.566;2023-07-29T06:21:30;6.07;;;2.72;;
64110;SDS011;50401;48.188;11.566;2023-07-29T06:23:55;7.05;;;3.10;;
64110;SDS011;50401;48.188;11.566;2023-07-29T06:26:21;6.57;;;2.65;;
64110;SDS011;50401;48.188;11.566;2023-07-29T06:28:46;4.93;;;2.53;;
64110;SDS011;50401;48.188;11.566;2023-07-29T06:31:11;7.10;;;2.72;;
64110;SDS011;50401;48.188;11.566;2023-07-29T06:33:37;4.05;;;2.63;;
64110;SDS011;50401;48.188;11.566;2023-07-29T06:36:02;9.98;;;3.80;;
64110;SDS011;50401;48.188;11.566;2023-07-29T06:38:27;6.60;;;3.63;;
64110;SDS011;50401;48.188;11.566;2023-07-29T06:40:53;7.25;;;2.95;;
64110;SDS011;50401;48.188;11.566;2023-07-29T06:43:18;9.95;;;3.15;;
64110;SDS011;50401;48.188;11.566;2023-07-29T06:45:44;6.05;;;3.13;;
64110;SDS011;50401;48.188;11.566;2023-07-29T06:48:09;9.50;;;3.70;;
64110;SDS011;50401;48.188;11.566;2023-07-29T06:50:35;15.13;;;3.47;;
64110;SDS011;50401;48.188;11.566;2023-07-29T06:53:00;7.88;;;3.60;;
64110;SDS011;50401;48.188;11.566;2023-07-29T06:55:26;6.60;;;3.60;;
64110;SDS011;50401;48.188;11.566;2023-07-29T06:57:51;13.40;;;3.33;;
64110;SDS011;50401;48.188;11.566;2023-07-29T07:00:17;4.65;;;2.38;;
64110;SDS011;50401;48.188;11.566;2023-07-29T07:02:42;6.97;;;2.88;;
64110;SDS011;50401;48.188;11.566;2023-07-29T07:05:08;6.03;;;3.38;;
64110;SDS011;50401;48.188;11.566;2023-07-29T07:07:33;6.55;;;3.40;;
64110;SDS011;50401;48.188;11.566;2023-07-29T07:09:58;10.18;;;3.55;;
64110;SDS011;50401;48.188;11.566;2023-07-29T07:12:24;10.35;;;4.13;;
64110;SDS011;50401;48.188;11.566;2023-07-29T07:14:49;8.55;;;4.13;;
64110;SDS011;50401;48.188;11.566;2023-07-29T07:17:14;10.63;;;4.95;;
64110;SDS011;50401;48.188;11.566;2023-07-29T07:19:40;16.98;;;5.50;;
64110;SDS011;50401;48.188;11.566;2023-07-29T07:22:05;14.48;;;5.60;;
64110;SDS011;50401;48.188;11.566;2023-07-29T07:24:31;12.23;;;5.70;;
64110;SDS011;50401;48.188;11.566;2023-07-29T07:26:56;16.10;;;7.35;;
64110;SDS011;50401;48.188;11.566;2023-07-29T07:29:22;11.13;;;5.20;;
64110;SDS011;50401;48.188;11.566;2023-07-29T07:31:51;10.05;;;4.43;;
64110;SDS011;50401;48.188;11.566;2023-07-29T07:34:18;13.25;;;5.68;;
64110;SDS011;50401;48.188;11.566;2023-07-29T07:36:44;7.90;;;4.68;;
64110;SDS011;50401;48.188;11.566;2023-07-29T07:39:10;11.90;;;4.28;;
64110;SDS011;50401;48.188;11.566;2023-07-29T07:41:35;13.20;;;4.70;;
64110;SDS011;50401;48.188;11.566;2023-07-29T07:44:01;21.98;;;5.03;;
64110;SDS011;50401;48.188;11.566;2023-07-29T07:46:27;8.35;;;4.05;;
64110;SDS011;50401;48.188;11.566;2023-07-29T07:48:53;10.93;;;4.00;;
64110;SDS011;50401;48.188;11.566;2023-07-29T07:51:18;7.65;;;4.65;;
64110;SDS011;50401;48.188;11.566;2023-07-29T07:53:44;15.15;;;6.95;;
64110;SDS011;50401;48.188;11.566;2023-07-29T07:56:09;9.95;;;4.78;;
64110;SDS011;50401;48.188;11.566;2023-07-29T07:58:35;6.38;;;3.97;;
64110;SDS011;50401;48.188;11.566;2023-07-29T08:01:00;10.95;;;4.55;;
64110;SDS011;50401;48.188;11.566;2023-07-29T08:03:27;9.93;;;4.65;;
64110;SDS011;50401;48.188;11.566;2023-07-29T08:05:52;8.63;;;4.85;;
64110;SDS011;50401;48.188;11.566;2023-07-29T08:08:17;14.82;;;5.43;;
64110;SDS011;50401;48.188;11.566;2023-07-29T08:10:43;9.82;;;4.63;;
64110;SDS011;50401;48.188;11.566;2023-07-29T08:13:08;9.88;;;5.20;;
64110;SDS011;50401;48.188;11.566;2023-07-29T08:15:33;8.88;;;4.30;;
64110;SDS011;50401;48.188;11.566;2023-07-29T08:17:59;6.03;;;4.20;;
64110;SDS011;50401;48.188;11.566;2023-07-29T08:20:24;9.90;;;4.47;;
64110;SDS011;50401;48.188;11.566;2023-07-29T08:22:49;8.48;;;4.80;;
64110;SDS011;50401;48.188;11.566;2023-07-29T08:25:15;8.43;;;4.25;;
64110;SDS011;50401;48.188;11.566;2023-07-29T08:27:40;12.02;;;4.80;;
64110;SDS011;50401;48.188;11.566;2023-07-29T08:30:06;9.93;;;4.88;;
64110;SDS011;50401;48.188;11.566;2023-07-29T08:32:32;9.68;;;4.70;;
64110;SDS011;50401;48.188;11.566;2023-07-29T08:34:58;7.07;;;4.35;;
64110;SDS011;50401;48.188;11.566;2023-07-29T08:37:23;9.38;;;4.63;;
64110;SDS011;50401;48.188;11.566;2023-07-29T08:39:48;9.23;;;4.70;;
64110;SDS011;50401;48.188;11.566;2023-07-29T08:42:14;10.15;;;4.30;;
64110;SDS011;50401;48.188;11.566;2023-07-29T08:44:45;9.23;;;4.60;;
64110;SDS011;50401;48.188;11.566;2023-07-29T08:47:14;9.25;;;5.07;;
64110;SDS011;50401;48.188;11.566;2023-07-29T08:49:39;11.50;;;5.25;;
64110;SDS011;50401;48.188;11.566;2023-07-29T08:52:06;8.60;;;4.80;;
64110;SDS011;50401;48.188;11.566;2023-07-29T08:54:32;16.30;;;5.07;;
64110;SDS011;50401;48.188;11.566;2023-07-29T08:56:57;13.57;;;5.07;;
64110;SDS011;50401;48.188;11.566;2023-07-29T08:59:23;12.38;;;5.35;;
64110;SDS011;50401;48.188;11.566;2023-07-29T09:01:50;24.70;;;6.13;;
64110;SDS011;50401;48.188;11.566;2023-07-29T09:04:20;9.55;;;5.68;;
64110;SDS011;50401;48.188;11.566;2023-07-29T09:06:45;8.85;;;5.63;;
64110;SDS011;50401;48.188;11.566;2023-07-29T09:09:14;11.23;;;6.10;;
64110;SDS011;50401;48.188;11.566;2023-07-29T09:11:40;14.40;;;6.40;;
64110;SDS011;50401;48.188;11.566;2023-07-29T09:14:05;9.98;;;5.32;;
64110;SDS011;50401;48.188;11.566;2023-07-29T09:16:31;12.50;;;5.70;;
64110;SDS011;50401;48.188;11.566;2023-07-29T09:18:56;10.02;;;5.40;;
64110;SDS011;50401;48.188;11.566;2023-07-29T09:21:26;10.75;;;4.93;;
64110;SDS011;50401;48.188;11.566;2023-07-29T09:23:53;8.23;;;4.68;;
64110;SDS011;50401;48.188;11.566;2023-07-29T09:26:22;8.38;;;5.03;;
64110;SDS011;50401;48.188;11.566;2023-07-29T09:28:51;13.32;;;5.15;;
64110;SDS011;50401;48.188;11.566;2023-07-29T09:31:18;9.13;;;5.18;;
64110;SDS011;50401;48.188;11.566;2023-07-29T09:33:48;8.52;;;4.40;;
64110;SDS011;50401;48.188;11.566;2023-07-29T09:36:14;7.20;;;4.63;;
64110;SDS011;50401;48.188;11.566;2023-07-29T09:38:40;8.93;;;4.68;;
64110;SDS011;50401;48.188;11.566;2023-07-29T09:41:05;13.23;;;5.13;;
64110;SDS011;50401;48.188;11.566;2023-07-29T09:43:31;12.70;;;5.50;;
64110;SDS011;50401;48.188;11.566;2023-07-29T09:46:04;11.10;;;5.35;;
64110;SDS011;50401;48.188;11.566;2023-07-29T09:48:35;8.90;;;4.65;;
64110;SDS011;50401;48.188;11.566;2023-07-29T09:51:13;8.68;;;4.63;;
64110;SDS011;50401;48.188;11.566;2023-07-29T09:53:43;11.10;;;5.35;;
64110;SDS011;50401;48.188;11.566;2023-07-29T09:56:10;14.48;;;6.03;;
64110;SDS011;50401;48.188;11.566;2023-07-29T09:58:35;10.48;;;5.50;;
64110;SDS011;50401;48.188;11.566;2023-07-29T10:01:03;9.65;;;5.70;;
64110;SDS011;50401;48.188;11.566;2023-07-29T10:03:33;11.60;;;5.95;;
64110;SDS011;50401;48.188;11.566;2023-07-29T10:06:04;10.57;;;5.40;;
64110;SDS011;50401;48.188;11.566;2023-07-29T10:08:31;16.67;;;4.88;;
64110;SDS011;50401;48.188;11.566;2023-07-29T10:11:00;11.30;;;5.90;;
64110;SDS011;50401;48.188;11.566;2023-07-29T10:13:27;9.10;;;4.90;;
64110;SDS011;50401;48.188;11.566;2023-07-29T10:15:55;9.32;;;5.22;;
64110;SDS011;50401;48.188;11.566;2023-07-29T10:20:47;14.88;;;5.18;;
64110;SDS011;50401;48.188;11.566;2023-07-29T10:23:15;15.52;;;5.07;;
64110;SDS011;50401;48.188;11.566;2023-07-29T10:25:44;9.65;;;4.68;;
64110;SDS011;50401;48.188;11.566;2023-07-29T10:28:24;10.85;;;4.72;;
64110;SDS011;50401;48.188;11.566;2023-07-29T10:30:50;9.25;;;4.63;;
64110;SDS011;50401;48.188;11.566;2023-07-29T10:33:17;9.05;;;5.15;;
64110;SDS011;50401;48.188;11.566;2023-07-29T10:35:42;11.88;;;5.60;;
64110;SDS011;50401;48.188;11.566;2023-07-29T10:38:07;10.40;;;4.93;;
64110;SDS011;50401;48.188;11.566;2023-07-29T10:43:12;9.95;;;4.47;;
64110;SDS011;50401;48.188;11.566;2023-07-29T10:45:44;16.15;;;7.20;;
64110;SDS011;50401;48.188;11.566;2023-07-29T10:48:10;12.45;;;4.63;;
64110;SDS011;50401;48.188;11.566;2023-07-29T10:50:36;7.90;;;4.80;;
64110;SDS011;50401;48.188;11.566;2023-07-29T10:53:02;11.93;;;5.03;;
64110;SDS011;50401;48.188;11.566;2023-07-29T10:55:34;8.90;;;5.20;;
64110;SDS011;50401;48.188;11.566;2023-07-29T10:58:04;11.40;;;4.95;;
64110;SDS011;50401;48.188;11.566;2023-07-29T11:00:42;9.32;;;4.45;;
64110;SDS011;50401;48.188;11.566;2023-07-29T11:03:08;7.07;;;4.65;;
64110;SDS011;50401;48.188;11.566;2023-07-29T11:05:47;11.65;;;5.65;;
64110;SDS011;50401;48.188;11.566;2023-07-29T11:08:26;10.45;;;6.28;;
64110;SDS011;50401;48.188;11.566;2023-07-29T11:10:57;9.88;;;5.20;;
64110;SDS011;50401;48.188;11.566;2023-07-29T11:13:27;6.38;;;3.13;;
64110;SDS011;50401;48.188;11.566;2023-07-29T11:15:54;7.25;;;2.35;;
64110;SDS011;50401;48.188;11.566;2023-07-29T11:18:21;5.30;;;3.17;;
64110;SDS011;50401;48.188;11.566;2023-07-29T11:20:47;3.88;;;2.72;;
64110;SDS011;50401;48.188;11.566;2023-07-29T11:23:13;5.90;;;3.10;;
64110;SDS011;50401;48.188;11.566;2023-07-29T11:25:39;4.72;;;2.88;;
64110;SDS011;50401;48.188;11.566;2023-07-29T11:28:04;6.60;;;2.88;;
64110;SDS011;50401;48.188;11.566;2023-07-29T11:30:30;4.65;;;2.60;;
64110;SDS011;50401;48.188;11.566;2023-07-29T11:32:56;10.00;;;2.92;;
64110;SDS011;50401;48.188;11.566;2023-07-29T11:35:23;5.47;;;3.53;;
64110;SDS011;50401;48.188;11.566;2023-07-29T11:37:49;8.82;;;3.50;;
64110;SDS011;50401;48.188;11.566;2023-07-29T11:40:16;4.70;;;3.00;;
64110;SDS011;50401;48.188;11.566;2023-07-29T11:42:43;5.28;;;3.50;;
64110;SDS011;50401;48.188;11.566;2023-07-29T11:45:10;6.45;;;3.60;;
64110;SDS011;50401;48.188;11.566;2023-07-29T11:47:36;6.45;;;3.85;;
64110;SDS011;50401;48.188;11.566;2023-07-29T11:50:05;6.30;;;3.60;;
64110;SDS011;50401;48.188;11.566;2023-07-29T11:52:36;8.77;;;3.75;;
64110;SDS011;50401;48.188;11.566;2023-07-29T11:55:02;7.60;;;3.53;;
64110;SDS011;50401;48.188;11.566;2023-07-29T11:57:30;8.20;;;4.18;;
64110;SDS011;50401;48.188;11.566;2023-07-29T11:59:56;10.13;;;3.92;;
64110;SDS011;50401;48.188;11.566;2023-07-29T12:02:22;11.43;;;5.05;;
64110;SDS011;50401;48.188;11.566;2023-07-29T12:04:49;6.40;;;3.58;;
64110;SDS011;50401;48.188;11.566;2023-07-29T12:07:16;15.23;;;4.18;;
64110;SDS011;50401;48.188;11.566;2023-07-29T12:09:42;6.97;;;4.47;;
64110;SDS011;50401;48.188;11.566;2023-07-29T12:12:08;6.57;;;3.58;;
64110;SDS011;50401;48.188;11.566;2023-07-29T12:14:34;7.85;;;4.50;;
64110;SDS011;50401;48.188;11.566;2023-07-29T12:17:00;9.27;;;4.75;;
64110;SDS011;50401;48.188;11.566;2023-07-29T12:19:33;6.10;;;4.30;;
64110;SDS011;50401;48.188;11.566;2023-07-29T12:22:04;7.72;;;4.13;;
64110;SDS011;50401;48.188;11.566;2023-07-29T12:24:31;6.53;;;4.10;;
64110;SDS011;50401;48.188;11.566;2023-07-29T12:26:58;6.85;;;4.03;;
64110;SDS011;50401;48.188;11.566;2023-07-29T12:29:24;10.05;;;4.55;;
64110;SDS011;50401;48.188;11.566;2023-07-29T12:31:53;12.00;;;4.25;;
64110;SDS011;50401;48.188;11.566;2023-07-29T12:34:24;9.27;;;4.35;;
64110;SDS011;50401;48.188;11.566;2023-07-29T12:36:51;10.95;;;4.72;;
64110;SDS011;50401;48.188;11.566;2023-07-29T12:39:27;10.15;;;5.03;;
64110;SDS011;50401;48.188;11.566;2023-07-29T12:41:55;9.00;;;4.47;;
64110;SDS011;50401;48.188;11.566;2023-07-29T12:44:25;14.30;;;5.57;;
64110;SDS011;50401;48.188;11.566;2023-07-29T12:46:52;16.13;;;9.27;;
64110;SDS011;50401;48.188;11.566;2023-07-29T12:49:18;11.95;;;5.32;;
64110;SDS011;50401;48.188;11.566;2023-07-29T12:51:43;19.75;;;6.50;;
64110;SDS011;50401;48.188;11.566;2023-07-29T12:54:08;26.70;;;6.57;;
64110;SDS011;50401;48.188;11.566;2023-07-29T12:56:34;17.98;;;7.00;;
64110;SDS011;50401;48.188;11.566;2023-07-29T12:59:00;16.15;;;5.72;;
64110;SDS011;50401;48.188;11.566;2023-07-29T13:01:26;18.15;;;4.43;;
64110;SDS011;50401;48.188;11.566;2023-07-29T13:03:53;12.88;;;4.57;;
64110;SDS011;50401;48.188;11.566;2023-07-29T13:06:18;12.30;;;4.65;;
64110;SDS011;50401;48.188;11.566;2023-07-29T13:08:44;11.75;;;3.88;;
64110;SDS011;50401;48.188;11.566;2023-07-29T13:11:10;6.15;;;3.47;;
64110;SDS011;50401;48.188;11.566;2023-07-29T13:13:36;11.88;;;4.60;;
64110;SDS011;50401;48.188;11.566;2023-07-29T13:16:01;15.52;;;6.60;;
64110;SDS011;50401;48.188;11.566;2023-07-29T13:18:27;16.38;;;5.95;;
64110;SDS011;50401;48.188;11.566;2023-07-29T13:20:53;13.57;;;4.85;;
64110;SDS011;50401;48.188;11.566;2023-07-29T13:23:18;13.43;;;5.43;;
64110;SDS011;50401;48.188;11.566;2023-07-29T13:25:44;16.17;;;6.35;;
64110;SDS011;50401;48.188;11.566;2023-07-29T13:28:10;24.75;;;5.72;;
64110;SDS011;50401;48.188;11.566;2023-07-29T13:30:35;18.95;;;6.72;;
64110;SDS011;50401;48.188;11.566;2023-07-29T13:33:01;28.00;;;7.18;;
64110;SDS011;50401;48.188;11.566;2023-07-29T13:35:26;16.60;;;9.13;;
64110;SDS011;50401;48.188;11.566;2023-07-29T13:37:52;26.33;;;11.63;;
64110;SDS011;50401;48.188;11.566;2023-07-29T13:40:17;27.95;;;11.10;;
64110;SDS011;50401;48.188;11.566;2023-07-29T13:42:42;28.33;;;12.70;;
64110;SDS011;50401;48.188;11.566;2023-07-29T13:45:08;21.85;;;10.23;;
64110;SDS011;50401;48.188;11.566;2023-07-29T13:47:33;18.42;;;8.32;;
64110;SDS011;50401;48.188;11.566;2023-07-29T13:49:59;14.95;;;7.20;;
64110;SDS011;50401;48.188;11.566;2023-07-29T13:52:25;11.80;;;6.10;;
64110;SDS011;50401;48.188;11.566;2023-07-29T13:54:50;21.77;;;7.90;;
64110;SDS011;50401;48.188;11.566;2023-07-29T13:57:16;23.42;;;7.13;;
64110;SDS011;50401;48.188;11.566;2023-07-29T13:59:42;28.20;;;7.85;;
64110;SDS011;50401;48.188;11.566;2023-07-29T14:02:07;20.88;;;8.32;;
64110;SDS011;50401;48.188;11.566;2023-07-29T14:04:33;16.17;;;7.00;;
64110;SDS011;50401;48.188;11.566;2023-07-29T14:06:58;15.88;;;7.20;;
64110;SDS011;50401;48.188;11.566;2023-07-29T14:09:24;19.55;;;8.65;;
64110;SDS011;50401;48.188;11.566;2023-07-29T14:11:50;11.55;;;5.50;;
64110;SDS011;50401;48.188;11.566;2023-07-29T14:14:15;15.40;;;6.22;;
64110;SDS011;50401;48.188;11.566;2023-07-29T14:16:41;11.93;;;6.20;;
64110;SDS011;50401;48.188;11.566;2023-07-29T14:19:06;16.33;;;6.20;;
64110;SDS011;50401;48.188;11.566;2023-07-29T14:21:32;14.07;;;6.45;;
64110;SDS011;50401;48.188;11.566;2023-07-29T14:23:57;12.63;;;6.57;;
64110;SDS011;50401;48.188;11.566;2023-07-29T14:26:22;14.60;;;5.93;;
64110;SDS011;50401;48.188;11.566;2023-07-29T14:28:48;12.95;;;6.20;;
64110;SDS011;50401;48.188;11.566;2023-07-29T14:31:14;16.83;;;6.53;;
64110;SDS011;50401;48.188;11.566;2023-07-29T14:33:41;11.38;;;6.70;;
64110;SDS011;50401;48.188;11.566;2023-07-29T14:36:07;13.20;;;6.40;;